Time;durP1;ratioP1;P1;durP2;ratioP2;P2;SDS_P1;SDS_P2;PMS_P1;PMS_P2;Temp;Humidity;BMP_temperature;BMP_pressure;BME280_temperature;BME280_humidity;BME280_pressure;Samples;Min_cycle;Max_cycle;Signal;HPM_P1;HPM_P2
2021/07/28 00:02:06;;;;;;;8.27;6.95;;;21.70;71.10;;;;;;4977536;28;20117;-69
2021/07/28 00:04:35;;;;;;;8.07;6.32;;;21.60;71.20;;;;;;4994277;28;20116;-70
2021/07/28 00:07:00;;;;;;;10.88;7.05;;;21.40;71.60;;;;;;4975406;28;20496;-69
2021/07/28 00:09:26;;;;;;;11.05;7.20;;;21.40;71.90;;;;;;4976024;28;20088;-69
2021/07/28 00:11:52;;;;;;;8.60;6.10;;;21.30;72.10;;;;;;4977131;28;20023;-70
2021/07/28 00:14:18;;;;;;;7.22;6.53;;;21.40;72.00;;;;;;4976286;28;20118;-70
2021/07/28 00:16:43;;;;;;;9.07;6.70;;;21.50;71.90;;;;;;4975891;28;20031;-70
2021/07/28 00:19:17;;;;;;;7.75;6.47;;;21.50;72.00;;;;;;4976535;28;20055;-70
2021/07/28 00:24:31;;;;;;;7.28;6.18;;;21.50;71.90;;;;;;4974725;28;20038;-69
2021/07/28 00:26:58;;;;;;;7.18;6.13;;;21.60;71.70;;;;;;4962651;28;20023;-70
2021/07/28 00:29:25;;;;;;;7.68;5.25;;;21.50;71.70;;;;;;4939522;28;20023;-70
2021/07/28 00:31:50;;;;;;;8.45;6.07;;;21.50;72.00;;;;;;4974971;28;20067;-70
2021/07/28 00:34:16;;;;;;;6.97;6.28;;;21.50;72.10;;;;;;4982149;28;20136;-69
2021/07/28 00:36:41;;;;;;;10.68;6.00;;;21.50;71.90;;;;;;4993496;28;20041;-70
2021/07/28 00:39:07;;;;;;;8.07;5.75;;;21.50;71.60;;;;;;4994324;28;20081;-69
2021/07/28 00:41:32;;;;;;;7.63;6.10;;;21.50;71.00;;;;;;4976813;28;20397;-69
2021/07/28 00:43:58;;;;;;;8.57;5.72;;;21.40;71.70;;;;;;4976539;28;20040;-70
2021/07/28 00:46:23;;;;;;;9.15;5.95;;;21.30;72.10;;;;;;4993479;28;20485;-70
2021/07/28 00:48:49;;;;;;;6.85;5.55;;;21.40;71.80;;;;;;4994216;28;20485;-70
2021/07/28 00:51:14;;;;;;;6.78;5.65;;;21.40;71.80;;;;;;4993989;28;20077;-70
2021/07/28 00:53:40;;;;;;;6.57;5.90;;;21.50;71.80;;;;;;4976536;28;20484;-70
2021/07/28 00:56:06;;;;;;;6.35;5.75;;;21.50;71.90;;;;;;4974798;28;20026;-70
2021/07/28 00:58:32;;;;;;;9.85;5.80;;;21.40;72.00;;;;;;4976349;28;20109;-69
2021/07/28 01:00:57;;;;;;;8.43;5.72;;;21.40;72.00;;;;;;4993940;28;20115;-70
2021/07/28 01:03:23;;;;;;;6.18;5.53;;;21.40;72.30;;;;;;4977313;28;20382;-68
2021/07/28 01:05:49;;;;;;;6.70;5.63;;;21.40;72.50;;;;;;4973338;28;20031;-69
2021/07/28 01:08:15;;;;;;;6.72;5.80;;;21.40;72.70;;;;;;4957419;28;20036;-69
2021/07/28 01:10:41;;;;;;;9.60;6.30;;;21.30;72.80;;;;;;4974164;28;20026;-68
2021/07/28 01:13:07;;;;;;;8.82;6.78;;;21.30;73.00;;;;;;4974249;28;20046;-70
2021/07/28 01:15:40;;;;;;;7.00;5.88;;;21.20;72.50;;;;;;4973553;28;20030;-69
2021/07/28 01:18:13;;;;;;;10.73;6.13;;;21.10;72.80;;;;;;4957331;28;20034;-69
2021/07/28 01:20:41;;;;;;;6.82;5.90;;;21.00;73.20;;;;;;4974043;28;20031;-68
2021/07/28 01:23:22;;;;;;;6.40;5.70;;;21.00;73.30;;;;;;4974178;28;20038;-70
2021/07/28 01:25:49;;;;;;;6.35;5.68;;;21.00;73.70;;;;;;4973213;28;20023;-69
2021/07/28 01:28:15;;;;;;;10.18;5.88;;;21.00;74.00;;;;;;4956585;28;20027;-69
2021/07/28 01:30:42;;;;;;;6.05;5.25;;;21.00;73.90;;;;;;4973620;28;20092;-70
2021/07/28 01:33:08;;;;;;;9.82;5.68;;;21.00;73.90;;;;;;4973902;28;20065;-69
2021/07/28 01:35:36;;;;;;;6.97;6.18;;;20.90;74.30;;;;;;4972944;28;20050;-68
2021/07/28 01:38:02;;;;;;;6.57;5.90;;;20.70;74.40;;;;;;4973875;28;20089;-69
2021/07/28 01:40:27;;;;;;;9.93;6.32;;;20.70;74.60;;;;;;4972325;28;20034;-70
2021/07/28 01:42:53;;;;;;;7.30;5.65;;;20.80;74.40;;;;;;4973487;28;20101;-69
2021/07/28 01:45:19;;;;;;;9.43;6.72;;;20.70;74.70;;;;;;4955368;28;20029;-69
2021/07/28 01:47:45;;;;;;;8.43;5.90;;;20.80;74.60;;;;;;4973428;28;20038;-69
2021/07/28 01:50:12;;;;;;;7.22;6.05;;;20.80;74.30;;;;;;4973583;28;20046;-69
2021/07/28 01:52:39;;;;;;;6.85;6.15;;;20.70;75.10;;;;;;4972520;28;20102;-68
2021/07/28 01:55:07;;;;;;;7.43;5.93;;;20.80;74.90;;;;;;4972535;28;20030;-69
2021/07/28 01:57:33;;;;;;;8.88;6.47;;;20.70;74.80;;;;;;4973379;28;20076;-69
2021/07/28 02:00:02;;;;;;;16.70;6.72;;;20.70;75.10;;;;;;4973057;28;20412;-69
2021/07/28 02:02:31;;;;;;;11.35;6.43;;;20.50;75.70;;;;;;4973138;28;20485;-67
2021/07/28 02:04:58;;;;;;;10.52;6.40;;;;;;;;;;4972498;28;20034;-69
2021/07/28 02:07:23;;;;;;;9.07;6.47;;;20.30;76.40;;;;;;4973208;28;20370;-69
2021/07/28 02:09:49;;;;;;;9.68;6.68;;;20.20;76.70;;;;;;4955884;28;20038;-70
2021/07/28 02:12:15;;;;;;;6.38;5.60;;;20.20;76.80;;;;;;4973358;28;20026;-70
2021/07/28 02:14:40;;;;;;;8.98;6.30;;;20.20;76.70;;;;;;4972231;28;20038;-68
2021/07/28 02:17:06;;;;;;;7.38;6.20;;;20.20;76.90;;;;;;4973127;28;20045;-68
2021/07/28 02:19:31;;;;;;;10.10;6.70;;;20.20;77.10;;;;;;4971496;28;20476;-68
2021/07/28 02:21:57;;;;;;;7.30;6.10;;;20.30;77.10;;;;;;4972921;28;20027;-68
2021/07/28 02:24:22;;;;;;;8.90;6.18;;;20.10;77.20;;;;;;4972620;28;20078;-68
2021/07/28 02:26:48;;;;;;;7.15;6.43;;;20.00;77.60;;;;;;4968582;28;20078;-68
2021/07/28 02:29:13;;;;;;;9.05;6.95;;;20.00;77.40;;;;;;4952285;29;20073;-68
2021/07/28 02:31:39;;;;;;;16.65;6.78;;;;;;;;;;4953626;29;20114;-68
2021/07/28 02:34:05;;;;;;;7.60;6.72;;;;;;;;;;4952236;28;20482;-68
2021/07/28 02:36:31;;;;;;;8.65;6.45;;;;;;;;;;4970891;28;20105;-68
2021/07/28 02:38:56;;;;;;;9.65;7.20;;;19.80;78.70;;;;;;4972845;28;20537;-68
2021/07/28 02:41:22;;;;;;;8.77;6.53;;;19.70;79.00;;;;;;4972750;28;20026;-68
2021/07/28 02:43:47;;;;;;;11.13;5.65;;;19.60;79.20;;;;;;4972536;28;20517;-68
2021/07/28 02:46:13;;;;;;;8.88;6.18;;;19.70;78.90;;;;;;4954760;28;20062;-68
2021/07/28 02:48:38;;;;;;;8.40;6.70;;;19.80;78.90;;;;;;4972718;28;20092;-69
2021/07/28 02:51:04;;;;;;;7.97;5.93;;;19.80;78.60;;;;;;4972807;28;20031;-68
2021/07/28 02:53:29;;;;;;;8.57;6.03;;;20.00;78.50;;;;;;4967584;28;20046;-68
2021/07/28 02:55:55;;;;;;;6.80;6.07;;;20.00;78.30;;;;;;4972001;28;20031;-69
2021/07/28 02:58:20;;;;;;;8.07;6.28;;;20.00;78.20;;;;;;4971260;28;20045;-68
2021/07/28 03:00:47;;;;;;;10.10;5.40;;;20.20;78.00;;;;;;4972615;28;20035;-69
2021/07/28 03:03:12;;;;;;;6.90;5.90;;;20.20;77.70;;;;;;4972707;28;20019;-68
2021/07/28 03:05:38;;;;;;;6.88;5.28;;;20.30;77.60;;;;;;4971838;28;20086;-69
2021/07/28 03:08:04;;;;;;;8.45;6.35;;;20.40;77.50;;;;;;4972627;28;20082;-69
2021/07/28 03:10:29;;;;;;;6.82;6.13;;;20.40;76.70;;;;;;4972802;28;20065;-69
2021/07/28 03:12:55;;;;;;;9.77;6.40;;;20.50;75.60;;;;;;4972881;28;20030;-69
2021/07/28 03:15:21;;;;;;;153.20;136.40;;;20.60;74.40;;;;;;4971774;28;20093;-68
2021/07/28 03:17:46;;;;;;;6.95;5.97;;;20.60;74.50;;;;;;4972449;28;20030;-68
2021/07/28 03:20:12;;;;;;;10.68;6.30;;;20.70;74.70;;;;;;4975408;28;20034;-69
2021/07/28 03:22:37;;;;;;;10.73;5.65;;;20.60;73.90;;;;;;4974310;28;20054;-68
2021/07/28 03:25:03;;;;;;;8.30;6.63;;;20.70;73.40;;;;;;4971085;28;20101;-68
2021/07/28 03:27:29;;;;;;;91.80;74.25;;;20.60;73.80;;;;;;4975853;28;20084;-69
2021/07/28 03:29:54;;;;;;;7.18;6.13;;;20.70;73.70;;;;;;4976207;28;20031;-68
2021/07/28 03:32:20;;;;;;;10.05;6.93;;;20.80;73.70;;;;;;4976106;28;20107;-68
2021/07/28 03:34:45;;;;;;;18.58;11.63;;;20.80;73.20;;;;;;4975166;28;20444;-69
2021/07/28 03:37:11;;;;;;;16.77;11.18;;;20.70;73.50;;;;;;4958710;28;20481;-69
2021/07/28 03:39:36;;;;;;;8.77;6.32;;;20.80;73.50;;;;;;4974662;28;20039;-70
2021/07/28 03:42:02;;;;;;;11.27;7.88;;;20.80;73.60;;;;;;4975926;28;20027;-69
2021/07/28 03:44:28;;;;;;;9.95;6.35;;;20.80;73.40;;;;;;4987023;22;20047;-69
2021/07/28 03:46:53;;;;;;;7.18;6.15;;;20.80;73.90;;;;;;4956333;29;20102;-69
2021/07/28 03:49:19;;;;;;;10.30;6.65;;;20.70;74.10;;;;;;4956178;29;20110;-70
2021/07/28 03:51:44;;;;;;;8.65;5.43;;;20.70;74.30;;;;;;4956382;28;20165;-69
2021/07/28 03:54:10;;;;;;;11.65;6.13;;;20.70;74.40;;;;;;4956293;28;20023;-69
2021/07/28 03:56:36;;;;;;;7.38;5.40;;;20.80;74.20;;;;;;4938050;29;20486;-70
2021/07/28 03:59:01;;;;;;;7.35;5.90;;;20.90;73.50;;;;;;4949467;28;20042;-69
2021/07/28 04:01:27;;;;;;;10.23;6.00;;;21.00;73.10;;;;;;4956138;28;20042;-69
2021/07/28 04:03:52;;;;;;;10.38;7.30;;;21.20;72.70;;;;;;4956106;28;20027;-69
2021/07/28 04:06:18;;;;;;;7.45;6.45;;;21.30;71.90;;;;;;4955409;28;20483;-69
2021/07/28 04:08:44;;;;;;;10.98;6.50;;;21.40;71.70;;;;;;4956297;28;20513;-68
2021/07/28 04:11:09;;;;;;;7.60;5.82;;;21.90;70.10;;;;;;4938981;29;20031;-68
2021/07/28 04:13:35;;;;;;;6.75;5.63;;;22.50;68.60;;;;;;4955827;28;20039;-68
2021/07/28 04:16:00;;;;;;;6.15;5.55;;;23.00;66.80;;;;;;4955202;29;20027;-70
2021/07/28 04:18:26;;;;;;;7.47;5.75;;;23.40;65.20;;;;;;4945239;29;20074;-69
2021/07/28 04:20:51;;;;;;;8.90;5.90;;;23.70;64.20;;;;;;4936677;29;20119;-69
2021/07/28 04:23:17;;;;;;;8.43;5.03;;;24.20;61.60;;;;;;4936597;29;20035;-70
2021/07/28 04:25:42;;;;;;;7.85;5.45;;;24.00;62.30;;;;;;4937890;29;20031;-68
2021/07/28 04:28:08;;;;;;;7.45;5.18;;;24.30;61.60;;;;;;4956002;29;20038;-69
2021/07/28 04:30:33;;;;;;;9.85;6.45;;;24.30;61.20;;;;;;4955842;28;20054;-68
2021/07/28 04:33:00;;;;;;;7.60;5.75;;;24.00;62.50;;;;;;4938667;29;20406;-68
2021/07/28 04:35:25;;;;;;;9.70;5.35;;;24.10;62.30;;;;;;4955136;28;20105;-68
2021/07/28 04:37:51;;;;;;;10.07;5.65;;;24.10;62.10;;;;;;4974983;28;20082;-67
2021/07/28 04:40:17;;;;;;;8.82;5.35;;;24.30;61.70;;;;;;4975056;28;20038;-67
2021/07/28 04:42:42;;;;;;;5.82;4.90;;;24.70;61.00;;;;;;4974667;28;20053;-68
2021/07/28 04:45:08;;;;;;;5.80;5.18;;;25.60;58.20;;;;;;4973927;28;20058;-69
2021/07/28 04:47:34;;;;;;;5.32;4.82;;;26.30;56.10;;;;;;4974549;28;20110;-70
2021/07/28 04:49:59;;;;;;;4.68;4.28;;;26.80;54.60;;;;;;4974715;28;20034;-68
2021/07/28 04:52:25;;;;;;;8.75;5.22;;;27.30;53.20;;;;;;4974693;28;20036;-68
2021/07/28 04:54:52;;;;;;;7.38;5.68;;;27.50;51.40;;;;;;4973853;28;20069;-68
2021/07/28 04:57:18;;;;;;;5.57;4.47;;;26.90;52.30;;;;;;4974360;28;20485;-69
2021/07/28 04:59:43;;;;;;;7.78;5.25;;;26.50;53.50;;;;;;4956972;28;20122;-69
2021/07/28 05:02:09;;;;;;;7.72;5.53;;;26.80;53.10;;;;;;4957136;28;20461;-69
2021/07/28 05:04:34;;;;;;;6.97;5.60;;;26.40;52.80;;;;;;4956228;28;20022;-69
2021/07/28 05:07:00;;;;;;;10.27;5.80;;;25.50;55.60;;;;;;4974608;28;20019;-69
2021/07/28 05:09:25;;;;;;;5.75;5.07;;;24.40;59.40;;;;;;4974499;28;20031;-69
2021/07/28 05:11:51;;;;;;;8.15;5.38;;;24.00;61.40;;;;;;4974626;28;20035;-70
2021/07/28 05:14:17;;;;;;;8.32;6.25;;;23.80;62.30;;;;;;4956304;28;20053;-69
2021/07/28 05:16:42;;;;;;;8.90;5.55;;;23.30;63.70;;;;;;4956053;28;20023;-69
2021/07/28 05:19:08;;;;;;;7.93;5.55;;;23.00;64.40;;;;;;4974168;28;20080;-69
2021/07/28 05:21:33;;;;;;;8.93;5.97;;;22.90;65.10;;;;;;4974053;28;20027;-69
2021/07/28 05:23:59;;;;;;;6.65;4.95;;;23.00;65.40;;;;;;4973893;28;20019;-68
2021/07/28 05:26:24;;;;;;;8.07;5.55;;;23.30;64.80;;;;;;4965347;28;20030;-69
2021/07/28 05:28:50;;;;;;;6.93;5.55;;;23.70;64.10;;;;;;4954359;28;20059;-69
2021/07/28 05:31:15;;;;;;;9.35;5.22;;;24.20;62.20;;;;;;4954468;28;20035;-68
2021/07/28 05:33:42;;;;;;;7.75;6.15;;;24.40;61.80;;;;;;4957953;28;20053;-68
2021/07/28 05:36:08;;;;;;;6.95;5.40;;;24.00;61.80;;;;;;4972939;28;20023;-70
2021/07/28 05:38:34;;;;;;;11.13;5.53;;;23.60;62.80;;;;;;4973689;28;20038;-69
2021/07/28 05:41:04;;;;;;;9.05;6.25;;;23.70;63.50;;;;;;4973269;28;20031;-68
2021/07/28 05:43:30;;;;;;;6.78;5.95;;;24.00;62.70;;;;;;4970320;28;20622;-67
2021/07/28 05:45:56;;;;;;;8.70;5.88;;;23.70;62.80;;;;;;4937563;29;20031;-68
2021/07/28 05:48:22;;;;;;;7.85;5.55;;;23.80;62.90;;;;;;4917282;29;20020;-69
2021/07/28 05:50:50;;;;;;;7.78;5.95;;;24.00;62.90;;;;;;4934802;29;20032;-70
2021/07/28 05:53:15;;;;;;;8.07;6.20;;;24.20;62.30;;;;;;4959309;28;20074;-69
2021/07/28 05:55:41;;;;;;;8.27;6.25;;;24.20;62.40;;;;;;4953230;28;20031;-73
2021/07/28 05:58:06;;;;;;;8.23;5.95;;;24.10;62.40;;;;;;4936004;29;20096;-69
2021/07/28 06:00:32;;;;;;;9.07;5.70;;;24.00;62.90;;;;;;4954006;28;20035;-69
2021/07/28 06:02:57;;;;;;;7.13;5.63;;;23.90;63.10;;;;;;4953273;28;20031;-70
2021/07/28 06:05:23;;;;;;;9.20;6.05;;;23.60;63.60;;;;;;4935329;29;20031;-68
2021/07/28 06:07:49;;;;;;;8.25;6.72;;;23.60;63.80;;;;;;4953512;28;20027;-69
2021/07/28 06:10:14;;;;;;;15.00;6.68;;;23.40;64.50;;;;;;4953902;28;20051;-70
2021/07/28 06:12:41;;;;;;;11.65;6.50;;;23.30;64.50;;;;;;4936918;29;20023;-69
2021/07/28 06:15:07;;;;;;;10.25;6.05;;;23.30;65.50;;;;;;4952758;28;20056;-70
2021/07/28 06:17:32;;;;;;;6.40;5.80;;;23.40;65.10;;;;;;4954056;29;20493;-68
2021/07/28 06:19:58;;;;;;;9.43;6.45;;;23.70;63.80;;;;;;4953317;29;20072;-70
2021/07/28 06:22:24;;;;;;;9.60;5.60;;;24.00;63.40;;;;;;4953591;28;20062;-67
2021/07/28 06:24:50;;;;;;;7.53;5.47;;;24.40;62.00;;;;;;4935304;28;20064;-67
2021/07/28 06:27:16;;;;;;;8.55;5.53;;;24.50;61.40;;;;;;4935798;29;20034;-67
2021/07/28 06:29:42;;;;;;;9.45;6.13;;;24.40;61.10;;;;;;4948021;28;20493;-71
2021/07/28 06:32:07;;;;;;;12.00;6.00;;;24.10;62.30;;;;;;4917143;29;20112;-68
2021/07/28 06:34:33;;;;;;;9.38;6.32;;;23.90;63.40;;;;;;4949605;28;20030;-68
2021/07/28 06:36:59;;;;;;;6.05;5.45;;;24.00;63.40;;;;;;4936007;29;20031;-68
2021/07/28 06:39:24;;;;;;;7.88;5.90;;;24.30;62.60;;;;;;4936261;29;20050;-69
2021/07/28 06:41:50;;;;;;;12.73;6.80;;;24.40;61.90;;;;;;4936131;29;20027;-68
2021/07/28 06:44:15;;;;;;;8.25;6.05;;;24.20;62.70;;;;;;4951419;28;20043;-70
2021/07/28 06:46:41;;;;;;;7.55;6.72;;;24.20;63.70;;;;;;4950934;29;20038;-69
2021/07/28 06:49:06;;;;;;;7.85;6.63;;;24.10;63.00;;;;;;4951363;29;20493;-69
2021/07/28 06:51:32;;;;;;;12.85;6.90;;;23.80;64.40;;;;;;4945105;29;20039;-72
2021/07/28 06:53:57;;;;;;;12.25;6.45;;;23.60;65.10;;;;;;4936191;28;20027;-69
2021/07/28 06:56:23;;;;;;;12.27;7.22;;;23.60;65.80;;;;;;4944308;29;20023;-69
2021/07/28 06:58:48;;;;;;;9.93;6.78;;;23.60;65.90;;;;;;4937646;29;20350;-68
2021/07/28 07:01:14;;;;;;;13.52;7.85;;;23.50;66.10;;;;;;4954747;28;20045;-70
2021/07/28 07:03:40;;;;;;;7.57;6.43;;;23.50;66.80;;;;;;4957151;28;20039;-68
2021/07/28 07:06:06;;;;;;;9.77;6.60;;;23.70;66.30;;;;;;4956482;29;20054;-69
2021/07/28 07:08:32;;;;;;;16.27;6.95;;;23.70;66.50;;;;;;4956949;28;20038;-68
2021/07/28 07:10:58;;;;;;;11.02;6.60;;;23.80;66.40;;;;;;4939691;29;20027;-69
2021/07/28 07:13:24;;;;;;;9.98;5.97;;;23.80;66.20;;;;;;4939802;29;20220;-68
2021/07/28 07:15:49;;;;;;;8.88;5.40;;;24.20;65.10;;;;;;4937941;29;20135;-69
2021/07/28 07:18:15;;;;;;;6.72;5.38;;;24.60;63.00;;;;;;4938209;29;20610;-68
2021/07/28 07:20:41;;;;;;;7.70;6.25;;;25.00;61.80;;;;;;4937934;29;20489;-70
2021/07/28 07:23:07;;;;;;;6.07;5.05;;;25.50;59.50;;;;;;4937547;29;20099;-69
2021/07/28 07:25:32;;;;;;;8.35;5.97;;;25.40;59.40;;;;;;4937034;29;20024;-69
2021/07/28 07:27:58;;;;;;;13.80;5.85;;;25.20;59.80;;;;;;4934944;29;20016;-68
2021/07/28 07:30:23;;;;;;;6.68;5.43;;;24.90;60.70;;;;;;4937739;29;20027;-68
2021/07/28 07:33:37;;;;;;;8.60;5.68;;;24.80;60.70;;;;;;4937552;29;20039;-68
2021/07/28 07:35:35;;;;;;;8.55;5.53;;;24.60;61.80;;;;;;4973986;28;20035;-68
2021/07/28 07:38:00;;;;;;;8.20;6.00;;;24.30;62.50;;;;;;4958452;28;20390;-68
2021/07/28 07:40:26;;;;;;;8.43;5.93;;;24.20;63.20;;;;;;4975648;28;20031;-69
2021/07/28 07:42:52;;;;;;;8.48;6.10;;;24.10;63.80;;;;;;4975384;28;20027;-70
2021/07/28 07:45:17;;;;;;;8.13;6.07;;;24.10;63.80;;;;;;4974584;28;20037;-69
2021/07/28 07:47:43;;;;;;;8.32;5.70;;;24.00;63.80;;;;;;4975121;28;20022;-69
2021/07/28 07:50:09;;;;;;;8.82;5.60;;;24.10;63.90;;;;;;4975117;28;20381;-69
2021/07/28 07:52:35;;;;;;;7.15;6.05;;;24.20;65.00;;;;;;4957978;28;20117;-69
2021/07/28 07:55:01;;;;;;;8.20;5.88;;;24.00;64.70;;;;;;4974724;28;20042;-69
2021/07/28 07:57:26;;;;;;;7.05;5.13;;;24.30;63.60;;;;;;4975202;28;20401;-70
2021/07/28 07:59:52;;;;;;;6.43;5.30;;;24.50;63.20;;;;;;4957829;28;20027;-69
2021/07/28 08:02:17;;;;;;;6.30;5.53;;;24.70;62.20;;;;;;4963971;28;20398;-69
2021/07/28 08:04:43;;;;;;;6.80;5.60;;;24.90;60.80;;;;;;4944294;28;20031;-70
2021/07/28 08:07:08;;;;;;;8.60;5.88;;;24.70;61.60;;;;;;4936869;29;20059;-69
2021/07/28 08:09:34;;;;;;;10.82;5.68;;;24.60;62.00;;;;;;4953080;28;20038;-69
2021/07/28 08:11:59;;;;;;;7.25;5.30;;;24.60;61.60;;;;;;4955864;29;20027;-69
2021/07/28 08:14:25;;;;;;;7.47;4.63;;;25.00;61.50;;;;;;4955443;28;20557;-70
2021/07/28 08:16:51;;;;;;;11.30;5.63;;;25.50;59.40;;;;;;4955746;28;20028;-69
2021/07/28 08:19:16;;;;;;;8.43;5.75;;;25.70;58.70;;;;;;4938819;28;20118;-70
2021/07/28 08:21:42;;;;;;;7.50;4.70;;;26.00;58.20;;;;;;4939615;29;20108;-70
2021/07/28 08:24:07;;;;;;;6.45;4.78;;;26.10;57.60;;;;;;4936356;29;20374;-71
2021/07/28 08:26:33;;;;;;;6.20;5.10;;;26.30;57.80;;;;;;4935919;29;20031;-69
2021/07/28 08:28:58;;;;;;;5.80;5.20;;;26.10;57.50;;;;;;4935205;29;20098;-70
2021/07/28 08:31:24;;;;;;;11.00;5.47;;;26.20;57.20;;;;;;4936278;29;20556;-70
2021/07/28 08:33:49;;;;;;;7.40;5.43;;;26.40;57.00;;;;;;4944556;28;20455;-70
2021/07/28 08:36:15;;;;;;;6.70;5.07;;;26.70;56.20;;;;;;4974048;28;20493;-70
2021/07/28 08:38:40;;;;;;;7.65;4.88;;;27.20;54.80;;;;;;4957552;28;20292;-70
2021/07/28 08:41:06;;;;;;;5.20;4.70;;;28.00;52.90;;;;;;4975079;28;20078;-69
2021/07/28 08:43:34;;;;;;;8.05;4.47;;;28.70;50.90;;;;;;4974519;28;20030;-69
2021/07/28 08:46:02;;;;;;;4.90;4.40;;;29.40;49.40;;;;;;4956837;28;20046;-69
2021/07/28 08:48:31;;;;;;;10.38;4.85;;;29.90;46.60;;;;;;4974697;28;20054;-69
2021/07/28 08:50:59;;;;;;;4.28;3.80;;;30.20;45.50;;;;;;4974752;28;20031;-71
2021/07/28 08:53:25;;;;;;;5.07;4.57;;;29.90;46.20;;;;;;4974525;28;20078;-70
2021/07/28 08:55:55;;;;;;;5.60;4.47;;;29.70;46.40;;;;;;4973863;28;20034;-70
2021/07/28 08:58:23;;;;;;;5.03;4.53;;;29.10;47.80;;;;;;4974218;28;20027;-71
2021/07/28 09:00:49;;;;;;;4.47;4.07;;;29.00;47.90;;;;;;4974434;28;20066;-69
2021/07/28 09:03:15;;;;;;;5.30;4.57;;;29.30;47.60;;;;;;4957057;28;20023;-68
2021/07/28 09:05:43;;;;;;;4.90;4.45;;;29.70;46.70;;;;;;4973640;28;20037;-69
2021/07/28 09:08:33;;;;;;;4.32;3.92;;;30.20;45.30;;;;;;4974438;28;20209;-69
2021/07/28 09:11:03;;;;;;;5.00;4.50;;;30.40;44.30;;;;;;4974533;28;20031;-69
2021/07/28 09:13:35;;;;;;;5.75;4.57;;;30.40;43.20;;;;;;4974115;28;20508;-69
2021/07/28 09:16:07;;;;;;;7.50;4.13;;;30.40;42.80;;;;;;4956991;28;20485;-69
2021/07/28 09:18:46;;;;;;;5.82;4.55;;;30.40;43.60;;;;;;4973910;28;20033;-69
2021/07/28 09:21:28;;;;;;;4.05;3.72;;;30.60;42.50;;;;;;4948365;28;20054;-70
2021/07/28 09:24:12;;;;;;;4.45;4.07;;;32.00;41.70;;;;;;4937427;29;20390;-69
2021/07/28 09:26:45;;;;;;;5.60;4.30;;;33.00;38.30;;;;;;4936598;29;20106;-70
2021/07/28 09:29:11;;;;;;;5.25;4.03;;;33.10;36.40;;;;;;4937728;29;20647;-70
2021/07/28 09:31:47;;;;;;;3.92;3.58;;;33.20;37.00;;;;;;4954739;29;20464;-70
2021/07/28 09:34:19;;;;;;;4.43;4.03;;;33.30;36.60;;;;;;4962541;28;20033;-70
2021/07/28 09:36:45;;;;;;;4.47;3.80;;;33.20;37.40;;;;;;4968327;28;20122;-70
2021/07/28 09:39:29;;;;;;;4.40;3.88;;;33.80;35.90;;;;;;4954450;29;20555;-70
2021/07/28 09:41:56;;;;;;;4.15;3.75;;;34.00;35.30;;;;;;4936765;28;20065;-70
2021/07/28 09:44:32;;;;;;;4.05;3.50;;;34.40;34.50;;;;;;4954889;28;20035;-70
2021/07/28 09:47:09;;;;;;;3.80;3.40;;;34.90;32.60;;;;;;4954162;28;20031;-71
2021/07/28 09:49:36;;;;;;;3.72;3.25;;;35.10;33.80;;;;;;4937003;29;20020;-70
2021/07/28 09:52:25;;;;;;;3.28;2.97;;;35.20;33.50;;;;;;4954461;29;20023;-69
2021/07/28 09:54:53;;;;;;;3.05;2.85;;;35.30;32.50;;;;;;4953710;28;20077;-69
2021/07/28 09:57:21;;;;;;;3.38;3.08;;;35.00;32.00;;;;;;4954138;28;20023;-69
2021/07/28 10:00:08;;;;;;;4.70;3.28;;;34.60;32.30;;;;;;4938964;28;20062;-70
2021/07/28 10:02:35;;;;;;;4.13;3.20;;;33.40;33.80;;;;;;4933777;29;20020;-71
2021/07/28 10:05:02;;;;;;;4.47;3.08;;;32.00;35.90;;;;;;4933052;29;20024;-70
2021/07/28 10:07:30;;;;;;;5.30;2.97;;;31.30;37.60;;;;;;4917676;29;20024;-70
2021/07/28 10:10:11;;;;;;;5.70;3.60;;;30.90;38.40;;;;;;4933608;29;20023;-70
2021/07/28 10:12:39;;;;;;;3.80;3.15;;;30.80;39.00;;;;;;4934605;29;20078;-70
2021/07/28 10:15:08;;;;;;;3.17;2.83;;;30.70;39.20;;;;;;4933958;29;20033;-71
2021/07/28 10:17:34;;;;;;;3.75;3.28;;;30.40;39.10;;;;;;4934711;29;20031;-70
2021/07/28 10:20:00;;;;;;;3.58;3.28;;;30.40;39.30;;;;;;4934674;29;20159;-70
2021/07/28 10:22:27;;;;;;;3.75;3.03;;;30.50;40.10;;;;;;4917503;29;20059;-70
2021/07/28 10:24:54;;;;;;;4.63;3.25;;;30.80;37.80;;;;;;4933591;29;20032;-70
2021/07/28 10:27:21;;;;;;;5.43;3.40;;;30.90;38.50;;;;;;4934509;29;20110;-70
2021/07/28 10:29:49;;;;;;;4.47;3.30;;;30.70;37.80;;;;;;4933885;29;20027;-70
2021/07/28 10:32:31;;;;;;;3.45;2.92;;;30.70;38.40;;;;;;4933752;29;20397;-70
2021/07/28 10:35:16;;;;;;;5.68;2.92;;;30.70;37.70;;;;;;4960752;28;20033;-70
2021/07/28 10:37:41;;;;;;;3.22;2.83;;;30.60;38.60;;;;;;4954405;28;20023;-69
2021/07/28 10:40:27;;;;;;;3.63;3.30;;;30.80;38.20;;;;;;4972760;28;20389;-69
2021/07/28 10:42:55;;;;;;;3.80;3.00;;;31.10;38.50;;;;;;4955228;28;20508;-69
2021/07/28 10:45:26;;;;;;;4.13;3.30;;;31.30;38.00;;;;;;4954448;28;20039;-69
2021/07/28 10:47:52;;;;;;;4.22;3.63;;;31.20;36.20;;;;;;4972744;28;20390;-70
2021/07/28 10:50:23;;;;;;;24.88;7.57;;;30.90;37.10;;;;;;4972445;28;20034;-70
2021/07/28 10:52:51;;;;;;;11.82;6.18;;;30.70;38.00;;;;;;4972646;28;20035;-70
2021/07/28 10:55:22;;;;;;;4.40;2.97;;;30.80;37.40;;;;;;4972351;28;20045;-69
2021/07/28 10:57:53;;;;;;;3.53;3.17;;;30.90;37.10;;;;;;4972409;28;20023;-69
2021/07/28 11:00:43;;;;;;;3.67;2.70;;;30.90;37.20;;;;;;4955492;28;20035;-69
2021/07/28 11:03:08;;;;;;;3.60;3.30;;;31.10;38.10;;;;;;4972934;28;20436;-70
2021/07/28 11:05:48;;;;;;;3.35;2.95;;;30.90;37.30;;;;;;4972164;28;20015;-70
2021/07/28 11:08:22;;;;;;;4.50;2.95;;;30.50;38.20;;;;;;4973146;28;20027;-71
2021/07/28 11:10:58;;;;;;;3.92;3.40;;;30.30;38.50;;;;;;4972835;28;20045;-70
2021/07/28 11:13:32;;;;;;;4.18;3.38;;;29.90;39.90;;;;;;4955177;28;20059;-70
2021/07/28 11:16:06;;;;;;;4.38;3.67;;;29.80;41.80;;;;;;4972052;28;20107;-71
2021/07/28 11:18:46;;;;;;;4.10;3.70;;;29.60;41.20;;;;;;4955119;28;20030;-70
2021/07/28 11:21:16;;;;;;;5.80;3.95;;;30.10;40.30;;;;;;4972279;28;20047;-71
2021/07/28 11:23:59;;;;;;;8.35;4.15;;;30.40;40.10;;;;;;4972654;28;20019;-69
2021/07/28 11:26:28;;;;;;;3.90;3.35;;;30.40;40.70;;;;;;4971917;28;20015;-70
2021/07/28 11:28:58;;;;;;;3.83;3.53;;;30.10;39.90;;;;;;4972620;28;20019;-71
2021/07/28 11:31:29;;;;;;;5.10;3.63;;;29.90;41.10;;;;;;4954989;28;20026;-69
2021/07/28 11:34:13;;;;;;;4.65;3.97;;;29.90;41.40;;;;;;4949588;28;20122;-69
2021/07/28 11:36:40;;;;;;;8.65;6.18;;;29.50;41.20;;;;;;4935134;29;20508;-70
2021/07/28 11:39:11;;;;;;;4.70;3.90;;;29.30;42.30;;;;;;4953103;28;20027;-69
2021/07/28 11:41:37;;;;;;;4.40;3.80;;;29.60;41.70;;;;;;4956361;29;20034;-69
2021/07/28 11:44:05;;;;;;;6.95;3.67;;;29.70;40.40;;;;;;4956189;28;20445;-69
2021/07/28 11:46:32;;;;;;;6.07;4.35;;;29.90;41.10;;;;;;4955723;29;20033;-69
2021/07/28 11:49:03;;;;;;;7.88;4.05;;;29.90;40.90;;;;;;4939278;29;20099;-69
2021/07/28 11:51:33;;;;;;;4.27;3.87;;;30.10;40.20;;;;;;4956477;29;20445;-70
2021/07/28 11:54:15;;;;;;;3.72;3.30;;;29.80;39.90;;;;;;4956345;28;20358;-69
2021/07/28 11:56:53;;;;;;;5.00;4.18;;;29.70;39.20;;;;;;4955845;29;20055;-69
2021/07/28 11:59:20;;;;;;;8.70;4.28;;;30.00;39.80;;;;;;4938804;29;20110;-71
2021/07/28 12:01:47;;;;;;;9.30;6.00;;;30.10;40.00;;;;;;4956187;28;20023;-72
2021/07/28 12:04:18;;;;;;;5.00;3.72;;;30.20;39.30;;;;;;4938669;29;20035;-71
2021/07/28 12:06:44;;;;;;;7.15;4.47;;;30.40;40.40;;;;;;4938408;29;20106;-70
2021/07/28 12:09:36;;;;;;;6.63;3.90;;;30.60;39.10;;;;;;4956044;29;20522;-71
2021/07/28 12:12:19;;;;;;;6.15;4.32;;;30.40;38.80;;;;;;4953981;29;20036;-70
2021/07/28 12:14:47;;;;;;;6.38;4.00;;;30.20;38.70;;;;;;4938152;29;20028;-70
2021/07/28 12:17:15;;;;;;;5.90;3.88;;;30.50;38.40;;;;;;4955705;29;20393;-70
2021/07/28 12:19:57;;;;;;;4.65;3.90;;;30.40;38.20;;;;;;4956101;28;20020;-70
2021/07/28 12:22:29;;;;;;;3.88;3.22;;;29.80;39.30;;;;;;4955888;28;20512;-70
2021/07/28 12:25:10;;;;;;;6.70;3.17;;;29.60;39.50;;;;;;4955248;28;20151;-71
2021/07/28 12:27:37;;;;;;;3.72;3.33;;;29.50;40.40;;;;;;4955876;28;20482;-69
2021/07/28 12:30:18;;;;;;;5.97;3.40;;;29.80;39.50;;;;;;4955939;29;20124;-70
2021/07/28 12:32:49;;;;;;;7.28;3.45;;;30.00;39.40;;;;;;4938667;29;20035;-69
2021/07/28 12:35:14;;;;;;;;;;;29.70;39.20;;;;;;4971364;28;20030;-70
2021/07/28 12:37:41;;;;;;;4.03;3.63;;;29.80;38.90;;;;;;4957632;28;19906;-70
2021/07/28 12:40:07;;;;;;;8.30;3.70;;;29.60;39.70;;;;;;4957345;28;20121;-69
2021/07/28 12:42:33;;;;;;;7.03;3.28;;;29.40;39.90;;;;;;4967664;28;20019;-69
2021/07/28 12:45:00;;;;;;;3.78;3.20;;;29.20;40.30;;;;;;4937190;29;20043;-69
2021/07/28 12:47:26;;;;;;;4.75;3.70;;;29.30;40.70;;;;;;4955202;29;20034;-71
2021/07/28 12:49:52;;;;;;;6.20;3.47;;;29.40;39.90;;;;;;4954354;29;20110;-69
2021/07/28 12:52:18;;;;;;;5.75;3.88;;;29.40;39.80;;;;;;4936299;28;20015;-71